Bananeiras, Brazil
Current Conditions -  °F | °C
As of 10:20 AM on Thursday 27 Nov 2014 (Local Time) from SBKG Reporting Station
Light Rain Light Rain  
Wind Chill: 73°   Ceiling: 1400
Heat Index: 73°   Visibility: 2.8mi
Dew Point: 72°   Wind: 14mph
Humidity: 94%   Direction: 100°E
Pressure: 30"   Gusts: NA
Location:  6.75°S, 35.63°W
Report Text: SBKG 271320Z 10012KT 4500 -RA SCT008 BKN014 23/22 Q1016
Loading
Personal Weather Stations






























Interactive Weather Map New forecast layout! Learn more

10-Day Weather Forecast

Advertisements
Track Severe Weather on mobile